Terminal Aerodrome Forecast
Issued by NWS

Home | Current Version | Previous Version | Text Only | Print | Product List | Glossary On
Versions: 1 2 3 4 5 6 7 8 9 10 11 12 13 14 15 16 17 18 19
000
FTUS44 KLZK 242329
TAFHRO
TAF
KHRO 242329Z 2500/2524 30010G20KT P6SM SCT030 SCT250
     FM250800 31008G16KT P6SM SCT250
     FM251500 32010KT P6SM SCT250=

USA.gov is the U.S. government's official web portal to all federal, state and local government web resources and services.